Time;durP1;ratioP1;P1;durP2;ratioP2;P2;SDS_P1;SDS_P2;PMS_P1;PMS_P2;Temp;Humidity;BMP_temperature;BMP_pressure;BME280_temperature;BME280_humidity;BME280_pressure;Samples;Min_cycle;Max_cycle;Signal;HPM_P1;HPM_P2
2021/06/03 00:00:37;;;;;;;6.70;5.88;;;;;;;15.03;62.02;101280.97;4901370;28;122797;-65
2021/06/03 00:03:03;;;;;;;5.75;5.20;;;;;;;14.97;62.14;101274.72;4885916;28;100512;-66
2021/06/03 00:05:37;;;;;;;8.45;5.43;;;;;;;14.85;62.55;101276.94;4881922;28;116477;-66
2021/06/03 00:08:03;;;;;;;6.95;5.63;;;;;;;15.02;62.22;101276.63;4891571;28;116019;-65
2021/06/03 00:10:32;;;;;;;6.93;5.85;;;;;;;15.05;61.63;101281.47;4899896;28;108288;-69
2021/06/03 00:12:58;;;;;;;9.00;5.72;;;;;;;14.92;62.26;101277.47;4900216;28;98563;-70
2021/06/03 00:15:24;;;;;;;6.35;5.50;;;;;;;15.01;62.18;101283.13;4907340;28;98857;-70
2021/06/03 00:17:50;;;;;;;8.38;5.45;;;;;;;14.70;62.40;101275.09;4901267;28;110459;-66
2021/06/03 00:20:20;;;;;;;6.22;5.30;;;;;;;14.70;62.70;101284.06;4883778;28;120880;-70
2021/06/03 00:22:46;;;;;;;8.32;5.40;;;;;;;14.82;62.37;101282.94;4919262;28;98331;-66
2021/06/03 00:25:12;;;;;;;7.90;5.50;;;;;;;14.91;62.27;101287.50;4918470;28;127382;-70
2021/06/03 00:27:38;;;;;;;7.78;6.03;;;;;;;15.02;61.49;101276.63;4900304;28;126504;-66
2021/06/03 00:30:05;;;;;;;7.28;6.20;;;;;;;14.81;61.52;101276.66;4898669;28;108610;-70
2021/06/03 00:32:32;;;;;;;10.25;6.53;;;;;;;14.77;61.80;101281.03;4899976;28;97894;-70
2021/06/03 00:34:58;;;;;;;9.48;7.30;;;;;;;14.94;60.95;101267.16;4900234;28;98688;-70
2021/06/03 00:37:24;;;;;;;7.47;6.75;;;;;;;14.68;62.39;101286.22;4900096;28;104546;-70
2021/06/03 00:39:50;;;;;;;9.95;7.68;;;;;;;14.67;61.97;101276.44;4900317;28;100306;-66
2021/06/03 00:42:17;;;;;;;10.52;7.88;;;;;;;14.62;62.44;101270.22;4883479;28;126545;-66
2021/06/03 00:44:43;;;;;;;9.43;7.43;;;;;;;14.68;62.01;101272.63;4903071;28;104677;-66
2021/06/03 00:47:09;;;;;;;9.05;7.78;;;;;;;14.43;62.88;101283.53;4903598;28;98373;-70
2021/06/03 00:49:35;;;;;;;11.52;7.07;;;;;;;14.63;62.36;101278.09;4902901;28;119934;-66
2021/06/03 00:52:01;;;;;;;8.00;7.03;;;;;;;14.44;62.80;101280.53;4901617;28;114693;-70
2021/06/03 00:54:27;;;;;;;9.02;6.10;;;;;;;14.25;63.94;101276.75;4923461;28;98547;-66
2021/06/03 00:56:53;;;;;;;7.82;5.93;;;;;;;14.23;65.04;101281.66;4903345;28;126373;-66
2021/06/03 00:59:19;;;;;;;9.07;5.88;;;;;;;14.35;64.29;101286.78;4921787;28;122096;-70
2021/06/03 01:01:45;;;;;;;7.32;6.30;;;;;;;13.99;65.30;101282.19;4921171;28;127832;-66
2021/06/03 01:04:16;;;;;;;8.93;6.78;;;;;;;13.98;65.57;101285.16;4925072;28;106150;-66
2021/06/03 01:06:43;;;;;;;7.07;6.07;;;;;;;13.93;65.72;101287.84;4905044;28;99157;-66
2021/06/03 01:09:31;;;;;;;7.10;6.38;;;;;;;13.74;65.83;101285.66;4922681;28;97828;-66
2021/06/03 01:12:25;;;;;;;7.47;6.18;;;;;;;13.85;65.45;101291.09;4891996;28;98395;-70
2021/06/03 01:14:57;;;;;;;6.93;6.00;;;;;;;13.99;65.18;101293.03;4884592;28;98095;-70
2021/06/03 01:17:23;;;;;;;8.88;5.78;;;;;;;13.81;65.58;101295.44;4884503;28;111919;-66
2021/06/03 01:19:50;;;;;;;8.05;6.20;;;;;;;13.94;65.75;101297.63;4894703;28;122217;-66
2021/06/03 01:22:48;;;;;;;7.68;6.35;;;;;;;13.82;66.75;101299.75;4909813;28;108548;-71
2021/06/03 01:25:15;;;;;;;7.38;5.97;;;;;;;13.89;65.30;101295.72;4892279;28;104359;-66
2021/06/03 01:27:41;;;;;;;7.75;6.55;;;;;;;13.94;64.74;101292.19;4884623;28;98020;-71
2021/06/03 01:30:24;;;;;;;7.28;6.20;;;;;;;14.06;65.12;101294.63;4883984;28;122076;-66
2021/06/03 01:33:13;;;;;;;;;;;;;;;13.93;64.90;101290.56;4901115;28;98270;-70
2021/06/03 01:35:43;;;;;;;10.57;7.75;;;;;;;13.63;65.22;101286.72;4884578;28;100394;-66
2021/06/03 01:38:18;;;;;;;12.00;9.73;;;;;;;13.95;64.57;101288.38;4918584;28;112789;-71
2021/06/03 01:40:46;;;;;;;11.80;9.00;;;;;;;13.81;64.18;101287.31;4887884;28;98061;-66
2021/06/03 01:43:13;;;;;;;11.98;8.43;;;;;;;13.68;64.61;101292.16;4922193;28;98302;-66
2021/06/03 01:45:39;;;;;;;9.25;8.00;;;;;;;13.97;64.00;101289.75;4903764;28;100388;-66
2021/06/03 01:48:06;;;;;;;10.85;7.50;;;;;;;13.79;65.05;101297.59;4871870;28;100474;-71
2021/06/03 01:50:32;;;;;;;8.38;6.65;;;;;;;13.83;64.69;101293.25;4886667;28;115807;-66
2021/06/03 01:52:58;;;;;;;7.20;6.45;;;;;;;13.82;64.55;101288.94;4920255;28;128460;-71
2021/06/03 01:55:24;;;;;;;9.57;6.45;;;;;;;13.65;65.39;101289.19;4892274;28;127924;-66
2021/06/03 01:57:50;;;;;;;7.00;6.28;;;;;;;13.45;65.19;101290.75;4922061;28;98063;-66
2021/06/03 02:00:18;;;;;;;8.20;5.88;;;;;;;13.78;64.61;101285.94;4902270;28;123378;-66
2021/06/03 02:02:45;;;;;;;7.65;6.13;;;;;;;13.80;64.33;101282.97;4884240;28;98077;-71
2021/06/03 02:05:12;;;;;;;8.52;6.30;;;;;;;13.72;64.78;101289.75;4906402;28;98730;-70
2021/06/03 02:07:38;;;;;;;9.68;6.35;;;;;;;13.82;64.36;101286.22;4921702;28;98022;-71
2021/06/03 02:10:05;;;;;;;8.80;6.47;;;;;;;13.75;64.29;101284.59;4916624;28;97705;-67
2021/06/03 02:12:32;;;;;;;7.35;6.20;;;;;;;13.79;63.99;101284.84;4901729;28;98148;-66
2021/06/03 02:15:00;;;;;;;7.88;6.65;;;;;;;13.73;64.43;101288.66;4902202;28;111232;-70
2021/06/03 02:17:31;;;;;;;8.93;6.60;;;;;;;13.42;65.00;101290.47;4883973;28;108905;-71
2021/06/03 02:20:10;;;;;;;7.72;6.47;;;;;;;13.54;64.52;101285.63;4891252;28;98419;-71
2021/06/03 02:22:37;;;;;;;9.45;6.88;;;;;;;13.72;64.14;101290.56;4890903;28;98918;-70
2021/06/03 02:25:07;;;;;;;8.68;6.28;;;;;;;13.64;64.23;101290.25;4899469;28;98670;-71
2021/06/03 02:27:33;;;;;;;6.80;5.97;;;;;;;13.67;64.54;101289.72;4892257;28;98099;-70
2021/06/03 02:29:59;;;;;;;9.15;6.10;;;;;;;13.75;64.09;101291.88;4895067;28;106429;-71
2021/06/03 02:32:27;;;;;;;10.60;6.30;;;;;;;13.64;63.75;101290.25;4902842;28;99095;-66
2021/06/03 02:34:53;;;;;;;8.02;6.30;;;;;;;13.68;64.21;101302.19;4881920;28;111149;-67
2021/06/03 02:37:19;;;;;;;9.82;6.22;;;;;;;13.47;64.24;101296.69;4883519;28;98919;-71
2021/06/03 02:39:48;;;;;;;6.93;6.15;;;;;;;13.59;64.15;101291.03;4901298;28;104988;-70
2021/06/03 02:42:15;;;;;;;6.55;5.85;;;;;;;13.62;64.50;101290.50;4901524;28;97967;-72
2021/06/03 02:44:41;;;;;;;7.45;5.85;;;;;;;13.62;64.64;101300.53;4900817;28;99122;-66
2021/06/03 02:47:08;;;;;;;9.05;6.28;;;;;;;13.59;64.65;101304.59;4901253;28;98161;-67
2021/06/03 02:49:34;;;;;;;8.43;6.20;;;;;;;13.22;65.87;101304.72;4883087;28;111745;-71
2021/06/03 02:52:05;;;;;;;6.47;5.88;;;;;;;13.29;65.37;101309.94;4901300;28;108309;-71
2021/06/03 02:54:31;;;;;;;6.50;5.80;;;;;;;13.41;65.72;101303.19;4920041;28;116142;-71
2021/06/03 02:56:57;;;;;;;9.05;6.35;;;;;;;13.42;65.74;101304.00;4885918;28;102012;-67
2021/06/03 02:59:23;;;;;;;9.70;6.22;;;;;;;13.26;66.29;101312.06;4885879;28;119672;-66
2021/06/03 03:01:49;;;;;;;11.65;6.80;;;;;;;13.49;65.08;101308.09;4920099;28;117380;-71
2021/06/03 03:04:15;;;;;;;8.88;6.55;;;;;;;13.29;65.55;101307.22;4919207;28;128036;-71
2021/06/03 03:06:41;;;;;;;7.93;6.28;;;;;;;13.46;65.08;101310.53;4919750;28;127029;-71
2021/06/03 03:09:07;;;;;;;10.93;6.15;;;;;;;13.15;66.03;101315.78;4919047;28;122838;-66
2021/06/03 03:11:33;;;;;;;9.40;6.40;;;;;;;13.40;65.31;101312.41;4902349;28;97970;-67
2021/06/03 03:14:00;;;;;;;10.32;6.05;;;;;;;13.45;65.38;101307.00;4881284;28;128128;-66
2021/06/03 03:16:26;;;;;;;8.45;5.93;;;;;;;13.33;65.16;101316.44;4900042;28;98331;-66
2021/06/03 03:18:52;;;;;;;8.15;5.68;;;;;;;13.46;65.35;101319.47;4900364;28;113854;-67
2021/06/03 03:21:18;;;;;;;7.95;6.03;;;;;;;13.53;64.64;101321.91;4865472;28;128813;-71
2021/06/03 03:23:44;;;;;;;8.50;5.97;;;;;;;13.60;64.72;101325.19;4882119;28;128284;-71
2021/06/03 03:26:10;;;;;;;7.68;6.45;;;;;;;13.34;65.70;101321.59;4911599;28;127005;-67
2021/06/03 03:28:36;;;;;;;10.25;5.80;;;;;;;13.48;65.36;101319.22;4918799;28;121500;-67
2021/06/03 03:31:02;;;;;;;8.90;5.90;;;;;;;13.43;65.17;101317.28;4920763;28;98739;-67
2021/06/03 03:33:29;;;;;;;9.60;6.47;;;;;;;13.67;64.47;101320.31;4885154;28;118045;-71
2021/06/03 03:35:55;;;;;;;7.57;6.38;;;;;;;13.66;64.23;101318.69;4902168;28;97898;-71
2021/06/03 03:38:22;;;;;;;8.98;6.68;;;;;;;13.58;64.57;101324.63;4870145;28;98144;-68
2021/06/03 03:40:49;;;;;;;7.28;6.07;;;;;;;13.47;64.67;101325.69;4920180;28;108056;-67
2021/06/03 03:43:15;;;;;;;8.23;6.20;;;;;;;13.67;64.07;101333.06;4891821;28;98178;-67
2021/06/03 03:45:41;;;;;;;6.85;6.15;;;;;;;13.61;64.38;101326.00;4891607;28;98443;-71
2021/06/03 03:48:08;;;;;;;7.50;6.25;;;;;;;13.73;64.11;101340.13;4919188;28;121487;-71
2021/06/03 03:50:34;;;;;;;9.32;6.25;;;;;;;13.66;64.31;101340.38;4919392;28;112898;-71
2021/06/03 03:53:01;;;;;;;7.68;6.15;;;;;;;13.82;64.16;101343.94;4920016;28;97989;-71
2021/06/03 03:55:27;;;;;;;7.00;5.97;;;;;;;13.88;63.78;101345.59;4919371;28;98474;-67
2021/06/03 03:57:53;;;;;;;7.38;6.03;;;;;;;13.96;63.90;101341.53;4920250;28;97835;-67
2021/06/03 04:00:28;;;;;;;7.70;6.18;;;;;;;13.92;63.00;101343.97;4912601;28;98872;-67
2021/06/03 04:02:54;;;;;;;8.25;6.43;;;;;;;13.73;64.26;101346.34;4882464;28;98997;-71
2021/06/03 04:05:20;;;;;;;7.60;5.97;;;;;;;13.89;63.69;101340.97;4900471;28;98096;-67
2021/06/03 04:07:46;;;;;;;8.50;6.43;;;;;;;13.91;63.63;101346.94;4905079;28;123104;-71
2021/06/03 04:10:17;;;;;;;8.48;6.25;;;;;;;14.02;63.03;101353.19;4901787;28;128575;-71
2021/06/03 04:12:44;;;;;;;11.13;6.22;;;;;;;13.95;63.51;101348.84;4918924;28;98627;-67
2021/06/03 04:15:12;;;;;;;9.18;6.10;;;;;;;14.12;63.20;101356.72;4919556;28;115488;-67
2021/06/03 04:17:38;;;;;;;7.78;6.35;;;;;;;14.21;62.75;101351.59;4886154;28;97839;-71
2021/06/03 04:20:10;;;;;;;8.75;6.30;;;;;;;14.41;62.11;101362.44;4884327;28;126420;-67
2021/06/03 04:22:36;;;;;;;6.82;5.63;;;;;;;14.04;62.94;101359.16;4884788;28;114465;-67
2021/06/03 04:25:04;;;;;;;6.53;5.70;;;;;;;14.45;61.78;101362.72;4902505;28;126693;-71
2021/06/03 04:27:30;;;;;;;7.40;5.78;;;;;;;14.51;62.30;101358.16;4903309;28;98233;-67
2021/06/03 04:29:56;;;;;;;8.95;5.72;;;;;;;14.54;61.65;101361.13;4903346;28;127762;-71
2021/06/03 04:32:22;;;;;;;9.57;6.45;;;;;;;14.68;61.44;101366.81;4885512;28;128123;-67
2021/06/03 04:34:48;;;;;;;9.57;6.25;;;;;;;14.63;61.36;101367.63;4899735;28;121890;-71
2021/06/03 04:37:14;;;;;;;7.03;6.07;;;;;;;14.61;62.02;101367.06;4904160;28;122271;-71
2021/06/03 04:39:40;;;;;;;8.13;6.07;;;;;;;14.83;61.20;101364.06;4923064;28;98577;-71
2021/06/03 04:42:07;;;;;;;7.95;5.97;;;;;;;14.81;61.42;101360.81;4920892;28;126067;-67
2021/06/03 04:44:33;;;;;;;7.55;5.90;;;;;;;14.88;60.87;101369.47;4904203;28;98099;-67
2021/06/03 04:46:59;;;;;;;6.80;6.05;;;;;;;14.95;60.92;101363.78;4920099;28;97758;-67
2021/06/03 04:49:25;;;;;;;8.85;5.95;;;;;;;15.07;60.53;101363.47;4901780;28;128146;-67
2021/06/03 04:51:51;;;;;;;7.05;5.88;;;;;;;15.20;60.07;101363.69;4887535;28;128414;-71
2021/06/03 04:54:17;;;;;;;7.22;5.75;;;;;;;15.46;60.04;101371.78;4904634;28;98040;-67
2021/06/03 04:56:43;;;;;;;7.43;5.68;;;;;;;15.47;60.03;101373.38;4922428;28;104987;-71
2021/06/03 04:59:09;;;;;;;9.20;6.45;;;;;;;15.29;59.89;101366.69;4921613;28;128331;-67
2021/06/03 05:01:35;;;;;;;8.30;6.20;;;;;;;15.51;59.51;101369.03;4921939;28;127724;-67
2021/06/03 05:04:01;;;;;;;9.32;6.28;;;;;;;15.98;58.97;101367.72;4921836;28;122067;-68
2021/06/03 05:06:27;;;;;;;7.50;6.18;;;;;;;16.28;58.79;101365.91;4904470;28;120696;-67
2021/06/03 05:08:53;;;;;;;7.90;5.88;;;;;;;16.19;58.04;101363.78;4902609;28;126022;-67
2021/06/03 05:11:20;;;;;;;8.43;5.47;;;;;;;16.25;57.82;101369.16;4901997;28;128965;-72
2021/06/03 05:13:46;;;;;;;9.13;5.47;;;;;;;16.62;56.44;101371.31;4884547;28;98848;-67
2021/06/03 05:16:12;;;;;;;7.25;5.20;;;;;;;16.48;56.24;101373.88;4902039;28;122838;-67
2021/06/03 05:18:38;;;;;;;6.15;4.68;;;;;;;16.45;55.38;101369.81;4884063;28;113324;-71
2021/06/03 05:21:05;;;;;;;6.82;4.70;;;;;;;16.74;55.21;101374.53;4913565;28;98298;-71
2021/06/03 05:23:32;;;;;;;5.63;4.70;;;;;;;16.53;55.39;101379.28;4922163;28;97795;-71
2021/06/03 05:25:58;;;;;;;6.07;4.80;;;;;;;16.87;54.49;101379.28;4922821;28;97878;-71
2021/06/03 05:28:24;;;;;;;6.20;4.53;;;;;;;16.71;55.18;101385.94;4920748;28;113440;-71
2021/06/03 05:30:50;;;;;;;6.95;4.60;;;;;;;16.87;54.63;101378.47;4921428;28;121143;-71
2021/06/03 05:33:16;;;;;;;5.57;4.43;;;;;;;17.25;53.33;101379.44;4870926;28;125411;-67
2021/06/03 05:35:42;;;;;;;7.88;4.88;;;;;;;17.10;53.42;101371.44;4891563;28;121281;-67
2021/06/03 05:38:08;;;;;;;6.97;4.50;;;;;;;17.30;53.08;101376.63;4916182;28;98767;-67
2021/06/03 05:40:34;;;;;;;6.20;4.35;;;;;;;17.69;52.33;101372.09;4884578;28;128259;-71
2021/06/03 05:43:01;;;;;;;6.03;4.57;;;;;;;17.57;53.23;101375.22;4902676;28;127593;-72
2021/06/03 05:45:27;;;;;;;5.70;5.00;;;;;;;18.18;51.81;101371.66;4868546;28;97989;-67
2021/06/03 05:47:54;;;;;;;5.32;4.45;;;;;;;18.58;50.74;101372.09;4901612;28;98446;-68
2021/06/03 05:50:23;;;;;;;6.10;4.18;;;;;;;19.81;47.27;101376.06;4901876;28;97861;-72
2021/06/03 05:52:50;;;;;;;6.85;4.28;;;;;;;20.61;45.84;101368.16;4906230;28;98788;-72
2021/06/03 05:55:16;;;;;;;5.85;4.22;;;;;;;21.74;42.88;101375.69;4919398;28;98024;-72
2021/06/03 05:57:42;;;;;;;4.90;3.88;;;;;;;22.36;41.14;101368.28;4901857;28;112074;-68
2021/06/03 06:00:18;;;;;;;5.20;4.10;;;;;;;24.90;36.49;101370.72;4901257;28;98264;-68
2021/06/03 06:02:59;;;;;;;5.20;3.40;;;;;;;24.23;36.58;101383.72;4884691;28;98297;-72
2021/06/03 06:06:23;;;;;;;5.50;3.53;;;;;;;24.44;36.31;101380.94;4908809;28;98037;-72
2021/06/03 06:08:18;;;;;;;4.35;3.65;;;;;;;24.83;35.33;101381.50;4906792;28;99194;-72
2021/06/03 06:10:44;;;;;;;6.82;3.63;;;;;;;25.59;33.40;101378.13;4919969;28;127331;-73
2021/06/03 06:13:10;;;;;;;4.00;3.60;;;;;;;24.77;34.88;101380.13;4902922;28;120173;-68
2021/06/03 06:15:37;;;;;;;4.38;3.33;;;;;;;25.85;33.48;101387.97;4920849;28;122755;-72
2021/06/03 06:18:04;;;;;;;9.55;3.55;;;;;;;26.28;32.93;101378.97;4920647;28;99197;-69
2021/06/03 06:20:30;;;;;;;5.85;3.55;;;;;;;28.54;28.42;101379.56;4887081;28;98882;-72
2021/06/03 06:22:57;;;;;;;4.45;3.30;;;;;;;26.59;30.93;101391.28;4919468;28;115759;-68
2021/06/03 06:25:23;;;;;;;4.15;2.90;;;;;;;26.09;31.61;101393.41;4887044;28;97888;-72
2021/06/03 06:27:49;;;;;;;4.43;2.80;;;;;;;28.16;28.03;101388.69;4914515;28;114094;-69
2021/06/03 06:30:16;;;;;;;7.13;2.80;;;;;;;27.89;27.94;101403.19;4900546;28;109443;-68
2021/06/03 06:32:42;;;;;;;4.13;2.90;;;;;;;25.14;32.36;101414.91;4901176;28;105550;-68
2021/06/03 06:35:09;;;;;;;4.20;3.05;;;;;;;27.08;29.50;101402.03;4901064;28;111993;-67
2021/06/03 06:37:35;;;;;;;5.47;3.10;;;;;;;26.89;29.49;101392.47;4908288;28;98098;-67
2021/06/03 06:40:03;;;;;;;3.28;2.97;;;;;;;24.88;34.15;101409.69;4918783;28;127641;-67
2021/06/03 06:42:30;;;;;;;4.43;2.78;;;;;;;23.50;35.11;101417.06;4919656;28;98227;-71
2021/06/03 06:44:57;;;;;;;3.92;3.08;;;;;;;23.24;36.40;101415.28;4920657;28;97895;-67
2021/06/03 06:47:23;;;;;;;4.00;2.92;;;;;;;23.59;35.75;101404.09;4921049;28;98294;-71
2021/06/03 06:49:49;;;;;;;4.10;3.10;;;;;;;23.84;36.09;101396.81;4919767;28;98492;-71
2021/06/03 06:52:15;;;;;;;5.20;3.00;;;;;;;24.67;34.61;101398.69;4919293;28;128337;-67
2021/06/03 06:54:41;;;;;;;4.47;2.65;;;;;;;24.63;34.52;101402.47;4901228;28;122209;-71
2021/06/03 06:57:08;;;;;;;3.20;2.50;;;;;;;25.43;33.74;101399.28;4920738;28;98324;-71
2021/06/03 06:59:34;;;;;;;4.72;2.70;;;;;;;26.10;32.73;101394.25;4920529;28;97745;-68
2021/06/03 07:02:00;;;;;;;5.03;2.90;;;;;;;26.75;31.04;101396.84;4885320;28;126725;-71
2021/06/03 07:04:26;;;;;;;3.15;2.85;;;;;;;26.48;31.88;101402.03;4920018;28;97790;-71
2021/06/03 07:06:53;;;;;;;4.25;2.58;;;;;;;27.03;29.84;101388.47;4902676;28;98265;-67
2021/06/03 07:09:19;;;;;;;5.07;2.70;;;;;;;26.51;30.33;101395.00;4885696;28;98653;-71
2021/06/03 07:11:45;;;;;;;4.05;2.75;;;;;;;26.52;31.63;101393.84;4886628;28;97997;-68
2021/06/03 07:14:11;;;;;;;4.50;2.42;;;;;;;26.56;31.46;101392.78;4899362;28;123006;-71
2021/06/03 07:16:37;;;;;;;3.22;2.25;;;;;;;26.25;32.26;101385.19;4899892;28;128044;-71
2021/06/03 07:19:03;;;;;;;3.78;2.50;;;;;;;26.55;31.60;101379.31;4886885;28;98098;-67
2021/06/03 07:21:30;;;;;;;4.32;2.67;;;;;;;26.37;31.30;101376.88;4899231;28;97895;-71
2021/06/03 07:23:56;;;;;;;5.07;2.58;;;;;;;25.57;33.62;101385.13;4900698;28;106545;-67
2021/06/03 07:26:24;;;;;;;4.57;2.60;;;;;;;25.64;32.13;101382.59;4900092;28;128283;-67
2021/06/03 07:28:51;;;;;;;4.28;2.75;;;;;;;26.24;31.67;101375.28;4892412;28;100237;-71
2021/06/03 07:31:18;;;;;;;5.13;2.70;;;;;;;26.18;31.52;101382.25;4919999;28;98183;-67
2021/06/03 07:33:44;;;;;;;5.05;2.65;;;;;;;27.14;32.00;101384.03;4902314;28;98140;-72
2021/06/03 07:36:10;;;;;;;4.40;2.55;;;;;;;27.12;31.02;101380.84;4919627;28;98663;-68
2021/06/03 07:38:36;;;;;;;4.82;2.75;;;;;;;26.90;30.16;101383.03;4917779;28;112765;-68
2021/06/03 07:41:04;;;;;;;3.75;2.58;;;;;;;26.43;30.28;101385.69;4882670;28;120159;-72
2021/06/03 07:43:30;;;;;;;4.13;2.45;;;;;;;25.57;32.34;101390.66;4900589;28;97995;-72
2021/06/03 07:45:56;;;;;;;4.78;2.35;;;;;;;26.76;30.67;101377.13;4900272;28;111207;-67
2021/06/03 07:48:22;;;;;;;4.00;2.47;;;;;;;27.09;31.14;101381.50;4866666;28;108235;-72
2021/06/03 07:50:48;;;;;;;4.05;2.40;;;;;;;28.54;28.72;101380.38;4900200;28;98303;-72
2021/06/03 07:53:14;;;;;;;2.95;2.40;;;;;;;28.43;28.15;101382.13;4900680;28;98390;-68
2021/06/03 07:55:40;;;;;;;4.15;2.53;;;;;;;27.99;29.02;101384.41;4917684;28;110908;-68
2021/06/03 07:58:10;;;;;;;2.90;2.10;;;;;;;27.19;29.47;101388.47;4919152;28;99432;-73
2021/06/03 08:00:36;;;;;;;3.67;2.28;;;;;;;28.40;27.57;101382.06;4919056;28;98190;-73
2021/06/03 08:03:05;;;;;;;4.03;2.50;;;;;;;30.76;24.99;101377.97;4919628;28;99366;-74
2021/06/03 08:05:31;;;;;;;4.10;2.50;;;;;;;31.82;23.87;101384.69;4918773;28;127551;-68
2021/06/03 08:07:58;;;;;;;3.55;2.38;;;;;;;28.71;27.03;101392.16;4900664;28;126034;-68
2021/06/03 08:10:27;;;;;;;4.80;2.53;;;;;;;28.93;26.80;101385.81;4901308;28;98359;-73
2021/06/03 08:12:55;;;;;;;3.25;2.40;;;;;;;28.78;27.51;101383.97;4911154;28;97987;-73
2021/06/03 08:15:21;;;;;;;4.38;2.22;;;;;;;30.61;26.02;101371.41;4904733;28;103573;-69
2021/06/03 08:17:51;;;;;;;3.53;2.17;;;;;;;31.79;24.02;101377.88;4899299;28;99117;-74
2021/06/03 08:20:22;;;;;;;3.45;2.40;;;;;;;31.69;23.82;101376.66;4900502;28;98035;-69
2021/06/03 08:22:48;;;;;;;3.67;2.30;;;;;;;32.35;22.38;101382.13;4879443;28;97963;-69
2021/06/03 08:25:16;;;;;;;3.35;2.10;;;;;;;32.45;23.44;101372.19;4919802;28;98108;-73
2021/06/03 08:27:42;;;;;;;2.92;2.50;;;;;;;31.01;24.05;101381.75;4917902;28;99434;-69
2021/06/03 08:30:10;;;;;;;2.78;2.35;;;;;;;31.89;23.46;101362.44;4918753;28;98907;-69
2021/06/03 08:32:36;;;;;;;2.22;2.05;;;;;;;31.62;24.20;101364.69;4919298;28;97950;-69
2021/06/03 08:35:02;;;;;;;2.97;2.30;;;;;;;32.32;23.64;101366.16;4919338;28;111684;-74
2021/06/03 08:37:30;;;;;;;6.88;2.75;;;;;;;32.47;22.79;101372.59;4918001;28;121461;-75
2021/06/03 08:39:56;;;;;;;7.03;2.60;;;;;;;30.61;25.18;101365.06;4899088;28;97902;-68
2021/06/03 08:42:22;;;;;;;3.92;2.60;;;;;;;31.05;25.49;101362.31;4899738;28;108648;-68
2021/06/03 08:44:48;;;;;;;2.85;2.40;;;;;;;30.99;24.77;101363.84;4885087;28;119926;-75
2021/06/03 08:47:14;;;;;;;5.15;2.30;;;;;;;32.67;23.17;101356.28;4900427;28;127464;-74
2021/06/03 08:49:40;;;;;;;2.42;2.17;;;;;;;33.98;21.49;101371.25;4901660;28;126799;-75
2021/06/03 08:52:07;;;;;;;5.28;2.40;;;;;;;34.26;21.75;101359.13;4901287;28;97981;-75
2021/06/03 08:54:35;;;;;;;3.65;2.60;;;;;;;32.69;22.64;101362.25;4901765;28;98518;-69
2021/06/03 08:57:01;;;;;;;4.05;2.42;;;;;;;31.85;23.77;101348.50;4914465;28;99135;-69
2021/06/03 08:59:28;;;;;;;3.22;2.10;;;;;;;33.02;22.39;101355.53;4901007;28;98151;-69
2021/06/03 09:01:54;;;;;;;2.75;2.20;;;;;;;31.24;24.01;101356.50;4885166;28;98202;-69
2021/06/03 09:04:20;;;;;;;3.92;2.22;;;;;;;32.09;24.20;101357.34;4920432;28;128498;-69
2021/06/03 09:06:46;;;;;;;2.58;2.10;;;;;;;32.80;23.35;101349.09;4903281;28;98328;-69
2021/06/03 09:09:14;;;;;;;5.85;2.58;;;;;;;32.35;23.76;101357.03;4921714;28;115948;-77
2021/06/03 09:11:40;;;;;;;4.80;2.47;;;;;;;33.12;22.55;101353.91;4922699;28;98012;-76
2021/06/03 09:14:08;;;;;;;2.75;2.17;;;;;;;32.81;22.72;101353.47;4921265;28;98647;-77
2021/06/03 09:16:36;;;;;;;3.83;2.30;;;;;;;33.55;21.35;101353.84;4921915;28;97911;-69
2021/06/03 09:19:10;;;;;;;3.65;2.47;;;;;;;30.62;26.11;101345.22;4903473;28;97940;-77
2021/06/03 09:21:58;;;;;;;4.13;2.50;;;;;;;30.82;25.79;101354.19;4892794;28;98409;-78
2021/06/03 09:24:29;;;;;;;2.92;2.20;;;;;;;29.74;27.16;101349.38;4903485;28;98610;-76
2021/06/03 09:27:00;;;;;;;4.40;2.87;;;;;;;30.01;26.34;101355.66;4885065;28;113401;-77
2021/06/03 09:29:31;;;;;;;4.05;2.45;;;;;;;31.49;24.38;101348.31;4895325;28;110978;-77
2021/06/03 09:32:09;;;;;;;3.55;2.20;;;;;;;31.73;24.79;101348.81;4903015;28;97921;-77
2021/06/03 09:34:36;;;;;;;2.85;2.22;;;;;;;32.28;23.84;101345.06;4903984;28;98821;-77
2021/06/03 09:37:05;;;;;;;2.95;2.38;;;;;;;33.48;21.55;101349.06;4901748;28;98375;-69
2021/06/03 09:39:44;;;;;;;3.85;2.10;;;;;;;34.17;20.31;101356.78;4902885;28;97902;-77
2021/06/03 09:42:18;;;;;;;2.03;1.80;;;;;;;34.62;20.18;101361.69;4903291;28;98155;-70
2021/06/03 09:44:49;;;;;;;3.42;2.30;;;;;;;33.57;21.02;101357.03;4902513;28;98898;-78
2021/06/03 09:47:20;;;;;;;2.88;1.90;;;;;;;32.84;21.28;101352.69;4902290;28;98030;-68
2021/06/03 09:50:07;;;;;;;3.53;2.00;;;;;;;34.38;20.45;101341.84;4918277;28;114477;-70
2021/06/03 09:52:34;;;;;;;5.57;2.22;;;;;;;34.39;20.96;101351.84;4902180;28;114802;-70
2021/06/03 09:55:12;;;;;;;2.70;2.05;;;;;;;34.70;20.25;101343.63;4902962;28;104196;-78
2021/06/03 09:57:44;;;;;;;2.85;2.13;;;;;;;34.39;19.65;101345.47;4910303;28;98867;-78
2021/06/03 10:00:11;;;;;;;2.30;2.10;;;;;;;35.48;19.30;101330.91;4901828;28;97967;-78
2021/06/03 10:02:37;;;;;;;3.22;1.90;;;;;;;35.76;19.10;101343.00;4903189;28;97815;-68
2021/06/03 10:05:20;;;;;;;3.65;1.98;;;;;;;32.26;22.29;101335.06;4901794;28;121745;-67
2021/06/03 10:08:00;;;;;;;2.15;1.88;;;;;;;33.04;20.92;101324.41;4908670;28;98454;-72
2021/06/03 10:10:28;;;;;;;4.05;2.22;;;;;;;32.88;20.70;101322.78;4902254;28;103661;-70
2021/06/03 10:12:55;;;;;;;3.20;2.10;;;;;;;33.04;21.88;101327.19;4902174;28;99573;-68
2021/06/03 10:15:20;;;;;;;3.15;2.15;;;;;;;34.18;20.38;101319.22;4898232;28;110237;-75
2021/06/03 10:18:00;;;;;;;2.15;1.95;;;;;;;35.09;20.15;101320.91;4908941;28;98635;-75
2021/06/03 10:20:40;;;;;;;2.67;2.08;;;;;;;36.11;18.92;101317.28;4921102;28;98343;-68
2021/06/03 10:23:15;;;;;;;3.80;2.08;;;;;;;36.25;19.06;101313.50;4916968;28;97906;-68
2021/06/03 10:25:42;;;;;;;2.40;1.70;;;;;;;35.32;18.77;101330.69;4895176;28;98969;-76
2021/06/03 10:28:14;;;;;;;3.45;1.83;;;;;;;35.60;19.30;101312.75;4903072;28;98416;-68
2021/06/03 10:30:49;;;;;;;2.25;2.00;;;;;;;35.35;17.17;101313.84;4914497;28;97930;-68
2021/06/03 10:33:21;;;;;;;2.40;1.80;;;;;;;34.67;18.50;101320.09;4904228;28;98091;-75
2021/06/03 10:35:50;;;;;;;2.38;2.00;;;;;;;34.49;18.74;101310.25;4920885;28;97627;-68
2021/06/03 10:38:17;;;;;;;2.75;1.60;;;;;;;36.08;17.06;101306.94;4919266;28;99644;-76
2021/06/03 10:40:50;;;;;;;2.03;1.70;;;;;;;34.87;18.13;101325.13;4902896;28;103782;-76
2021/06/03 10:43:16;;;;;;;4.15;2.10;;;;;;;36.32;17.92;101310.59;4919524;28;97926;-76
2021/06/03 10:45:43;;;;;;;3.38;2.10;;;;;;;35.71;17.71;101321.84;4919469;28;127123;-67
2021/06/03 10:48:10;;;;;;;2.78;1.98;;;;;;;33.22;20.76;101314.00;4916218;28;98267;-68
2021/06/03 10:50:42;;;;;;;2.85;1.88;;;;;;;34.42;19.33;101317.44;4900729;28;97933;-68
2021/06/03 10:53:14;;;;;;;4.40;2.00;;;;;;;34.68;19.92;101309.69;4902129;28;112823;-68
2021/06/03 10:55:49;;;;;;;2.92;1.90;;;;;;;35.58;18.36;101301.19;4901745;28;98347;-76
2021/06/03 10:58:15;;;;;;;2.95;1.80;;;;;;;35.07;19.23;101297.34;4901410;28;99493;-69
2021/06/03 11:00:44;;;;;;;2.72;2.20;;;;;;;32.27;21.54;101299.66;4900038;28;119523;-76
2021/06/03 11:03:21;;;;;;;2.90;2.30;;;;;;;32.15;21.79;101297.25;4901296;28;97893;-75
2021/06/03 11:06:02;;;;;;;4.05;1.90;;;;;;;33.52;22.74;101288.38;4883629;28;98962;-68
2021/06/03 11:08:40;;;;;;;2.83;2.00;;;;;;;34.67;20.37;101300.50;4902112;28;97823;-76
2021/06/03 11:11:08;;;;;;;2.42;1.92;;;;;;;34.10;21.52;101295.28;4894148;28;97607;-76
2021/06/03 11:13:35;;;;;;;4.22;1.80;;;;;;;35.54;19.42;101300.44;4901644;28;98178;-76
2021/06/03 11:16:12;;;;;;;2.80;1.98;;;;;;;35.52;19.31;101292.44;4884328;28;98655;-76
2021/06/03 11:18:53;;;;;;;2.95;1.70;;;;;;;37.00;17.23;101292.63;4902058;28;98786;-76
2021/06/03 11:21:31;;;;;;;2.88;2.00;;;;;;;34.00;20.52;101298.19;4901680;28;98378;-76
2021/06/03 11:24:01;;;;;;;4.90;1.98;;;;;;;33.38;20.88;101286.41;4910017;28;97868;-69
2021/06/03 11:26:39;;;;;;;3.22;2.25;;;;;;;30.65;23.40;101288.00;4899435;28;107671;-68